createdAt,value
2023-01-22T00:00:29.915Z,4.58
2023-01-22T00:01:32.191Z,3.85
2023-01-22T00:02:34.496Z,3.88
2023-01-22T00:03:37.290Z,4.27
2023-01-22T00:04:39.853Z,4.22
2023-01-22T00:05:42.114Z,3.89
2023-01-22T00:06:44.812Z,4.25
2023-01-22T00:07:47.438Z,4.18
2023-01-22T00:08:49.704Z,4.96
2023-01-22T00:09:52.205Z,4.20
2023-01-22T00:10:54.637Z,4.41
2023-01-22T00:11:56.877Z,4.16
2023-01-22T00:12:59.327Z,4.14
2023-01-22T00:14:01.648Z,4.52
2023-01-22T00:15:04.239Z,4.49
2023-01-22T00:16:06.705Z,4.86
2023-01-22T00:17:08.937Z,4.08
2023-01-22T00:18:11.255Z,3.82
2023-01-22T00:19:13.547Z,2.92
2023-01-22T00:20:16.346Z,2.92
2023-01-22T00:21:18.801Z,3.05
2023-01-22T00:22:21.260Z,2.56
2023-01-22T00:23:23.610Z,3.04
2023-01-22T00:24:26.135Z,3.42
2023-01-22T00:25:28.547Z,3.33
2023-01-22T00:26:31.066Z,3.43
2023-01-22T00:27:33.254Z,3.95
2023-01-22T00:28:35.691Z,3.47
2023-01-22T00:29:37.957Z,3.90
2023-01-22T00:30:40.414Z,3.81
2023-01-22T00:31:42.800Z,4.36
2023-01-22T00:32:45.409Z,4.05
2023-01-22T00:33:47.583Z,3.46
2023-01-22T00:34:50.173Z,3.41
2023-01-22T00:35:52.415Z,2.55
2023-01-22T00:36:56.053Z,2.58
2023-01-22T00:37:59.101Z,2.48
2023-01-22T00:39:01.519Z,2.61
2023-01-22T00:40:04.005Z,2.79
2023-01-22T00:41:06.741Z,2.37
2023-01-22T00:42:09.239Z,2.29
2023-01-22T00:43:11.474Z,2.75
2023-01-22T00:44:13.955Z,2.51
2023-01-22T00:45:16.206Z,2.76
2023-01-22T00:46:18.556Z,4.24
2023-01-22T00:47:20.820Z,4.65
2023-01-22T00:48:23.006Z,4.29
2023-01-22T00:49:25.265Z,4.82
2023-01-22T00:50:27.508Z,5.07
2023-01-22T00:51:29.932Z,4.72
2023-01-22T00:52:32.155Z,4.11
2023-01-22T00:53:34.357Z,4.63
2023-01-22T00:54:36.845Z,4.19
2023-01-22T00:55:39.095Z,4.82
2023-01-22T00:56:41.305Z,4.74
2023-01-22T00:57:43.513Z,5.44
2023-01-22T00:58:45.799Z,4.92
2023-01-22T00:59:48.101Z,5.25
2023-01-22T01:00:50.735Z,5.25
2023-01-22T01:01:53.355Z,4.14
2023-01-22T01:02:55.583Z,4.66
2023-01-22T01:03:57.846Z,4.82
2023-01-22T01:05:00.103Z,6.50
2023-01-22T01:06:02.386Z,4.46
2023-01-22T01:07:04.754Z,4.92
2023-01-22T01:08:06.995Z,5.23
2023-01-22T01:09:09.255Z,4.95
2023-01-22T01:10:11.497Z,5.12
2023-01-22T01:11:13.685Z,4.92
2023-01-22T01:12:16.028Z,5.06
2023-01-22T01:13:18.180Z,4.21
2023-01-22T01:14:20.495Z,3.89
2023-01-22T01:15:23.074Z,4.07
2023-01-22T01:16:25.357Z,4.18
2023-01-22T01:17:27.732Z,3.86
2023-01-22T01:18:30.021Z,3.88
2023-01-22T01:19:32.358Z,4.12
2023-01-22T01:20:34.735Z,4.47
2023-01-22T01:21:36.995Z,4.81
2023-01-22T01:22:39.449Z,4.92
2023-01-22T01:23:41.681Z,4.86
2023-01-22T01:24:44.220Z,4.92
2023-01-22T01:25:49.608Z,4.08
2023-01-22T01:26:51.876Z,4.19
2023-01-22T01:27:54.400Z,4.08
2023-01-22T01:28:56.640Z,3.80
2023-01-22T01:29:59.059Z,4.12
2023-01-22T01:31:01.494Z,4.71
2023-01-22T01:32:03.970Z,4.20
2023-01-22T01:33:06.521Z,4.88
2023-01-22T01:34:08.719Z,4.09
2023-01-22T01:35:11.235Z,4.31
2023-01-22T01:36:13.423Z,4.22
2023-01-22T01:37:15.896Z,3.94
2023-01-22T01:38:18.323Z,3.96
2023-01-22T01:39:20.556Z,4.15
2023-01-22T01:40:22.814Z,4.85
2023-01-22T01:41:25.319Z,4.37
2023-01-22T01:42:27.609Z,4.41
2023-01-22T01:43:30.632Z,4.62
2023-01-22T01:44:32.833Z,4.91
2023-01-22T01:45:35.030Z,4.58
2023-01-22T01:46:37.497Z,4.19
2023-01-22T01:47:39.756Z,4.71
2023-01-22T01:48:42.106Z,4.86
2023-01-22T01:49:44.318Z,4.52
2023-01-22T01:50:46.614Z,4.44
2023-01-22T01:51:48.857Z,4.07
2023-01-22T01:52:51.061Z,4.03
2023-01-22T01:53:53.565Z,4.63
2023-01-22T01:54:56.123Z,4.31
2023-01-22T01:55:58.623Z,4.09
2023-01-22T01:57:01.172Z,3.75
2023-01-22T01:58:03.673Z,3.93
2023-01-22T01:59:06.301Z,3.88
2023-01-22T02:00:08.838Z,4.01
2023-01-22T02:01:11.336Z,4.08
2023-01-22T02:02:14.015Z,3.95
2023-01-22T02:03:16.609Z,3.72
2023-01-22T02:04:19.204Z,3.72
2023-01-22T02:05:21.438Z,3.87
2023-01-22T02:06:23.611Z,4.17
2023-01-22T02:07:25.855Z,3.98
2023-01-22T02:08:28.140Z,4.16
2023-01-22T02:09:30.639Z,4.06
2023-01-22T02:10:32.859Z,3.68
2023-01-22T02:11:35.096Z,4.08
2023-01-22T02:12:37.380Z,4.05
2023-01-22T02:13:39.569Z,4.15
2023-01-22T02:14:42.003Z,3.98
2023-01-22T02:15:44.260Z,4.03
2023-01-22T02:16:46.445Z,3.33
2023-01-22T02:17:48.720Z,3.81
2023-01-22T02:18:50.906Z,4.02
2023-01-22T02:19:53.305Z,3.54
2023-01-22T02:20:55.535Z,3.78
2023-01-22T02:21:57.713Z,3.60
2023-01-22T02:23:00.053Z,3.72
2023-01-22T02:24:02.267Z,3.27
2023-01-22T02:25:04.718Z,2.99
2023-01-22T02:26:06.937Z,3.30
2023-01-22T02:27:09.144Z,3.42
2023-01-22T02:28:11.378Z,3.38
2023-01-22T02:29:13.636Z,3.38
2023-01-22T02:30:16.161Z,3.39
2023-01-22T02:31:18.717Z,3.10
2023-01-22T02:32:20.974Z,3.67
2023-01-22T02:33:23.313Z,3.75
2023-01-22T02:34:25.510Z,3.12
2023-01-22T02:35:27.875Z,2.85
2023-01-22T02:36:30.104Z,2.62
2023-01-22T02:37:32.949Z,2.64
2023-01-22T02:38:35.195Z,2.92
2023-01-22T02:39:37.471Z,2.62
2023-01-22T02:40:39.723Z,2.72
2023-01-22T02:41:41.999Z,3.27
2023-01-22T02:42:44.136Z,3.02
2023-01-22T02:43:49.266Z,3.35
2023-01-22T02:44:51.444Z,3.53
2023-01-22T02:45:53.879Z,3.55
2023-01-22T02:46:56.131Z,3.85
2023-01-22T02:47:58.599Z,3.71
2023-01-22T02:49:00.825Z,3.25
2023-01-22T02:50:03.464Z,2.65
2023-01-22T02:51:06.018Z,2.76
2023-01-22T02:52:08.601Z,2.26
2023-01-22T02:53:10.903Z,2.07
2023-01-22T02:54:13.424Z,1.89
2023-01-22T02:55:15.661Z,1.60
2023-01-22T02:56:18.745Z,1.67
2023-01-22T02:57:21.265Z,1.86
2023-01-22T02:58:23.485Z,2.01
2023-01-22T02:59:25.892Z,1.95
2023-01-22T03:00:28.080Z,1.78
2023-01-22T03:01:30.508Z,1.95
2023-01-22T03:02:32.755Z,1.67
2023-01-22T03:03:35.071Z,1.95
2023-01-22T03:04:37.296Z,1.92
2023-01-22T03:05:39.522Z,1.74
2023-01-22T03:06:42.508Z,1.75
2023-01-22T03:07:44.888Z,1.88
2023-01-22T03:08:47.630Z,2.01
2023-01-22T03:09:49.862Z,2.12
2023-01-22T03:10:52.303Z,2.03
2023-01-22T03:11:54.920Z,2.47
2023-01-22T03:12:57.123Z,2.17
2023-01-22T03:13:59.465Z,2.40
2023-01-22T03:15:01.869Z,2.14
2023-01-22T03:16:04.522Z,2.10
2023-01-22T03:17:06.959Z,2.12
2023-01-22T03:18:09.385Z,2.05
2023-01-22T03:19:11.601Z,2.17
2023-01-22T03:20:13.794Z,2.57
2023-01-22T03:21:18.451Z,2.67
2023-01-22T03:22:20.115Z,2.66
2023-01-22T03:23:22.300Z,3.50
2023-01-22T03:24:24.731Z,3.31
2023-01-22T03:25:26.999Z,2.70
2023-01-22T03:26:29.234Z,2.51
2023-01-22T03:27:31.664Z,2.62
2023-01-22T03:28:33.815Z,2.52
2023-01-22T03:29:35.995Z,2.73
2023-01-22T03:30:38.407Z,2.59
2023-01-22T03:31:40.757Z,2.68
2023-01-22T03:32:43.322Z,3.02
2023-01-22T03:33:46.890Z,2.80
2023-01-22T03:34:49.079Z,3.39
2023-01-22T03:35:51.377Z,3.61
2023-01-22T03:36:53.577Z,3.07
2023-01-22T03:37:55.937Z,3.12
2023-01-22T03:38:58.337Z,2.99
2023-01-22T03:40:00.562Z,2.79
2023-01-22T03:41:02.777Z,2.75
2023-01-22T03:42:04.927Z,2.77
2023-01-22T03:43:07.158Z,2.56
2023-01-22T03:44:09.415Z,2.47
2023-01-22T03:45:11.643Z,2.91
2023-01-22T03:46:14.225Z,2.75
2023-01-22T03:47:16.565Z,2.62
2023-01-22T03:48:19.188Z,2.74
2023-01-22T03:49:21.605Z,2.50
2023-01-22T03:50:24.009Z,2.84
2023-01-22T03:51:26.256Z,2.64
2023-01-22T03:52:28.484Z,2.79
2023-01-22T03:53:31.022Z,2.84
2023-01-22T03:54:33.541Z,2.60
2023-01-22T03:55:35.743Z,2.74
2023-01-22T03:56:38.004Z,2.73
2023-01-22T03:57:40.231Z,2.99
2023-01-22T03:58:42.747Z,2.55
2023-01-22T03:59:44.957Z,2.76
2023-01-22T04:00:47.180Z,2.60
2023-01-22T04:01:49.380Z,2.77
2023-01-22T04:02:51.648Z,2.92
2023-01-22T04:03:53.888Z,2.58
2023-01-22T04:04:56.101Z,2.16
2023-01-22T04:05:58.308Z,2.35
2023-01-22T04:07:00.564Z,2.29
2023-01-22T04:08:02.720Z,2.35
2023-01-22T04:09:04.953Z,2.08
2023-01-22T04:10:07.209Z,2.43
2023-01-22T04:11:09.400Z,2.18
2023-01-22T04:12:11.588Z,2.54
2023-01-22T04:13:13.763Z,2.61
2023-01-22T04:14:16.017Z,2.73
2023-01-22T04:15:18.284Z,2.61
2023-01-22T04:16:20.471Z,2.27
2023-01-22T04:17:22.795Z,2.11
2023-01-22T04:18:25.039Z,2.42
2023-01-22T04:19:27.269Z,1.96
2023-01-22T04:20:29.469Z,2.23
2023-01-22T04:21:31.708Z,2.37
2023-01-22T04:22:34.009Z,2.26
2023-01-22T04:23:36.198Z,2.52
2023-01-22T04:24:38.548Z,2.27
2023-01-22T04:25:40.777Z,2.32
2023-01-22T04:26:42.996Z,2.53
2023-01-22T04:27:45.128Z,2.67
2023-01-22T04:28:47.319Z,2.42
2023-01-22T04:29:49.824Z,2.37
2023-01-22T04:30:52.361Z,2.04
2023-01-22T04:31:54.554Z,2.01
2023-01-22T04:32:56.735Z,2.14
2023-01-22T04:33:59.363Z,2.28
2023-01-22T04:35:02.305Z,2.65
2023-01-22T04:36:04.515Z,2.82
2023-01-22T04:37:06.857Z,2.89
2023-01-22T04:38:09.118Z,2.28
2023-01-22T04:39:11.569Z,2.15
2023-01-22T04:40:14.285Z,2.36
2023-01-22T04:41:16.528Z,3.12
2023-01-22T04:42:18.724Z,2.22
2023-01-22T04:43:20.995Z,2.31
2023-01-22T04:44:23.368Z,2.83
2023-01-22T04:45:25.789Z,2.93
2023-01-22T04:46:28.219Z,2.38
2023-01-22T04:47:30.413Z,2.35
2023-01-22T04:48:33.019Z,2.63
2023-01-22T04:49:35.463Z,2.37
2023-01-22T04:50:37.941Z,2.35
2023-01-22T04:51:40.422Z,2.67
2023-01-22T04:52:42.910Z,2.58
2023-01-22T04:53:45.362Z,2.64
2023-01-22T04:54:47.939Z,2.73
2023-01-22T04:55:50.583Z,2.25
2023-01-22T04:56:53.105Z,2.53
2023-01-22T04:57:55.572Z,2.49
2023-01-22T04:58:58.075Z,2.38
2023-01-22T05:00:00.524Z,2.35
2023-01-22T05:01:03.134Z,2.72
2023-01-22T05:02:05.666Z,2.42
2023-01-22T05:03:08.120Z,2.88
2023-01-22T05:04:10.589Z,2.60
2023-01-22T05:05:13.097Z,2.75
2023-01-22T05:06:15.682Z,2.24
2023-01-22T05:07:18.165Z,2.17
2023-01-22T05:08:20.661Z,2.35
2023-01-22T05:09:23.098Z,2.34
2023-01-22T05:10:25.667Z,2.59
2023-01-22T05:11:28.299Z,2.61
2023-01-22T05:12:30.798Z,2.55
2023-01-22T05:13:33.406Z,1.94
2023-01-22T05:14:35.917Z,2.44
2023-01-22T05:15:38.119Z,2.66
2023-01-22T05:16:40.465Z,2.62
2023-01-22T05:17:42.724Z,2.36
2023-01-22T05:18:44.982Z,2.66
2023-01-22T05:19:47.271Z,2.38
2023-01-22T05:20:49.701Z,2.22
2023-01-22T05:21:52.149Z,2.27
2023-01-22T05:22:54.591Z,2.73
2023-01-22T05:23:57.111Z,2.93
2023-01-22T05:24:59.635Z,2.28
2023-01-22T05:26:02.162Z,2.52
2023-01-22T05:27:05.148Z,2.39
2023-01-22T05:28:07.621Z,2.87
2023-01-22T05:29:19.012Z,2.43
2023-01-22T05:30:22.158Z,2.30
2023-01-22T05:31:25.461Z,2.10
2023-01-22T05:32:28.568Z,1.96
2023-01-22T05:33:31.652Z,2.23
2023-01-22T05:34:34.934Z,2.74
2023-01-22T05:35:38.113Z,1.95
2023-01-22T05:36:41.422Z,2.42
2023-01-22T05:37:44.588Z,2.39
2023-01-22T05:38:47.675Z,2.13
2023-01-22T05:39:51.055Z,2.31
2023-01-22T05:40:54.123Z,2.35
2023-01-22T05:41:57.235Z,2.14
2023-01-22T05:43:00.594Z,2.35
2023-01-22T05:44:03.971Z,2.07
2023-01-22T05:45:07.262Z,1.69
2023-01-22T05:46:10.417Z,1.82
2023-01-22T05:47:13.424Z,2.32
2023-01-22T05:48:16.399Z,2.21
2023-01-22T05:49:19.573Z,2.01
2023-01-22T05:50:22.773Z,2.11
2023-01-22T05:51:25.890Z,2.69
2023-01-22T05:52:29.024Z,2.10
2023-01-22T05:53:32.098Z,1.97
2023-01-22T05:54:35.188Z,2.18
2023-01-22T05:55:38.579Z,2.30
2023-01-22T05:56:41.757Z,1.84
2023-01-22T05:57:44.729Z,1.89
2023-01-22T05:58:47.942Z,2.14
2023-01-22T05:59:51.225Z,2.34
2023-01-22T06:00:54.378Z,2.03
2023-01-22T06:01:57.761Z,2.22
2023-01-22T06:03:01.196Z,2.37
2023-01-22T06:04:04.349Z,2.20
2023-01-22T06:05:07.644Z,2.14
2023-01-22T06:06:10.694Z,2.31
2023-01-22T06:07:13.970Z,2.27
2023-01-22T06:08:17.049Z,2.29
2023-01-22T06:09:20.253Z,2.27
2023-01-22T06:10:23.446Z,2.40
2023-01-22T06:11:26.664Z,2.11
2023-01-22T06:12:29.903Z,2.10
2023-01-22T06:13:32.973Z,2.17
2023-01-22T06:14:35.863Z,2.09
2023-01-22T06:15:38.666Z,2.24
2023-01-22T06:16:41.593Z,2.12
2023-01-22T06:17:44.778Z,2.21
2023-01-22T06:18:47.789Z,2.31
2023-01-22T06:19:50.724Z,2.51
2023-01-22T06:20:53.841Z,2.30
2023-01-22T06:21:56.779Z,2.03
2023-01-22T06:22:59.571Z,2.49
2023-01-22T06:24:02.599Z,2.58
2023-01-22T06:25:06.033Z,2.50
2023-01-22T06:26:09.305Z,2.81
2023-01-22T06:27:12.619Z,2.38
2023-01-22T06:28:15.785Z,2.62
2023-01-22T06:29:18.856Z,2.78
2023-01-22T06:30:21.954Z,2.54
2023-01-22T06:31:24.995Z,2.20
2023-01-22T06:32:28.001Z,2.56
2023-01-22T06:33:31.126Z,2.48
2023-01-22T06:34:34.152Z,2.45
2023-01-22T06:35:37.245Z,2.47
2023-01-22T06:36:43.356Z,2.63
2023-01-22T06:37:44.616Z,2.29
2023-01-22T06:38:48.030Z,2.67
2023-01-22T06:39:51.049Z,2.85
2023-01-22T06:40:54.374Z,2.89
2023-01-22T06:41:57.560Z,2.71
2023-01-22T06:43:00.877Z,2.84
2023-01-22T06:44:04.009Z,3.05
2023-01-22T06:45:07.202Z,3.01
2023-01-22T06:46:10.205Z,2.69
2023-01-22T06:47:13.354Z,2.52
2023-01-22T06:48:16.634Z,2.70
2023-01-22T06:49:19.744Z,2.69
2023-01-22T06:50:22.902Z,2.40
2023-01-22T06:51:26.093Z,2.56
2023-01-22T06:52:30.110Z,2.35
2023-01-22T06:53:33.411Z,2.34
2023-01-22T06:54:36.238Z,2.25
2023-01-22T06:55:38.886Z,2.63
2023-01-22T06:56:41.579Z,2.59
2023-01-22T06:57:44.410Z,2.61
2023-01-22T06:58:47.436Z,2.27
2023-01-22T06:59:50.216Z,2.50
2023-01-22T07:00:53.277Z,2.32
2023-01-22T07:01:56.655Z,2.10
2023-01-22T07:02:59.563Z,2.08
2023-01-22T07:04:02.453Z,2.25
2023-01-22T07:05:05.213Z,2.46
2023-01-22T07:06:08.068Z,2.83
2023-01-22T07:07:11.181Z,2.48
2023-01-22T07:08:14.219Z,2.75
2023-01-22T07:09:17.100Z,2.40
2023-01-22T07:10:20.165Z,2.53
2023-01-22T07:11:23.255Z,2.54
2023-01-22T07:12:26.146Z,2.17
2023-01-22T07:13:28.908Z,2.37
2023-01-22T07:14:36.783Z,2.59
2023-01-22T07:15:36.103Z,2.32
2023-01-22T07:16:38.857Z,2.42
2023-01-22T07:17:41.659Z,2.55
2023-01-22T07:18:44.477Z,2.31
2023-01-22T07:19:47.269Z,2.64
2023-01-22T07:20:50.152Z,2.58
2023-01-22T07:21:53.111Z,2.69
2023-01-22T07:22:55.814Z,2.95
2023-01-22T07:23:58.561Z,3.01
2023-01-22T07:25:01.246Z,2.65
2023-01-22T07:26:04.935Z,2.97
2023-01-22T07:27:07.816Z,2.86
2023-01-22T07:28:10.575Z,2.03
2023-01-22T07:29:13.259Z,2.17
2023-01-22T07:30:16.486Z,2.22
2023-01-22T07:31:19.663Z,2.48
2023-01-22T07:32:22.398Z,2.84
2023-01-22T07:33:25.179Z,2.69
2023-01-22T07:34:27.937Z,2.66
2023-01-22T07:35:30.798Z,2.26
2023-01-22T07:36:33.779Z,2.37
2023-01-22T07:37:36.717Z,2.46
2023-01-22T07:38:39.644Z,2.65
2023-01-22T07:39:42.508Z,2.50
2023-01-22T07:40:45.593Z,2.53
2023-01-22T07:41:48.568Z,2.46
2023-01-22T07:42:51.339Z,2.42
2023-01-22T07:43:54.016Z,2.80
2023-01-22T07:44:56.883Z,2.47
2023-01-22T07:45:59.658Z,2.52
2023-01-22T07:47:02.638Z,2.54
2023-01-22T07:48:05.448Z,2.55
2023-01-22T07:49:08.396Z,2.72
2023-01-22T07:50:11.283Z,2.32
2023-01-22T07:51:14.343Z,2.48
2023-01-22T07:52:17.317Z,2.50
2023-01-22T07:53:20.189Z,2.42
2023-01-22T07:54:22.976Z,2.66
2023-01-22T07:55:25.729Z,2.34
2023-01-22T07:56:28.607Z,2.42
2023-01-22T07:57:31.679Z,2.76
2023-01-22T07:58:34.603Z,2.51
2023-01-22T07:59:37.336Z,2.58
2023-01-22T08:00:39.786Z,2.56
2023-01-22T08:01:42.377Z,2.60
2023-01-22T08:02:44.650Z,2.85
2023-01-22T08:03:47.061Z,2.86
2023-01-22T08:04:49.485Z,2.76
2023-01-22T08:05:51.899Z,2.98
2023-01-22T08:06:54.359Z,3.03
2023-01-22T08:07:56.634Z,2.30
2023-01-22T08:08:58.933Z,2.90
2023-01-22T08:10:01.595Z,2.77
2023-01-22T08:11:03.853Z,2.87
2023-01-22T08:12:06.326Z,2.86
2023-01-22T08:13:08.831Z,3.26
2023-01-22T08:14:11.248Z,3.67
2023-01-22T08:15:13.788Z,3.10
2023-01-22T08:16:16.393Z,3.13
2023-01-22T08:17:19.010Z,2.96
2023-01-22T08:18:23.042Z,2.66
2023-01-22T08:19:25.696Z,3.02
2023-01-22T08:20:28.078Z,2.59
2023-01-22T08:21:30.782Z,2.64
2023-01-22T08:22:33.283Z,2.93
2023-01-22T08:23:35.550Z,3.21
2023-01-22T08:24:37.808Z,3.54
2023-01-22T08:25:40.217Z,4.09
2023-01-22T08:26:42.456Z,4.10
2023-01-22T08:27:44.736Z,3.98
2023-01-22T08:28:46.959Z,3.90
2023-01-22T08:29:49.144Z,2.98
2023-01-22T08:30:51.645Z,2.67
2023-01-22T08:31:54.269Z,2.80
2023-01-22T08:32:56.705Z,2.25
2023-01-22T08:33:59.184Z,2.01
2023-01-22T08:35:01.873Z,1.82
2023-01-22T08:36:04.325Z,1.92
2023-01-22T08:37:06.798Z,2.13
2023-01-22T08:38:09.327Z,2.01
2023-01-22T08:39:11.738Z,2.30
2023-01-22T08:40:14.329Z,2.65
2023-01-22T08:41:16.911Z,2.19
2023-01-22T08:42:19.423Z,2.14
2023-01-22T08:43:21.925Z,2.08
2023-01-22T08:44:24.463Z,1.94
2023-01-22T08:45:26.919Z,1.88
2023-01-22T08:46:29.658Z,1.96
2023-01-22T08:47:32.185Z,2.35
2023-01-22T08:48:34.654Z,1.62
2023-01-22T08:49:37.099Z,1.79
2023-01-22T08:50:39.533Z,1.82
2023-01-22T08:51:41.769Z,1.84
2023-01-22T08:52:44.036Z,1.93
2023-01-22T08:53:46.294Z,1.85
2023-01-22T08:54:48.539Z,1.62
2023-01-22T08:55:50.913Z,1.72
2023-01-22T08:56:53.308Z,1.61
2023-01-22T08:57:55.766Z,1.79
2023-01-22T08:58:58.282Z,1.48
2023-01-22T09:00:01.714Z,1.93
2023-01-22T09:01:04.652Z,1.70
2023-01-22T09:02:07.197Z,1.82
2023-01-22T09:03:09.632Z,1.59
2023-01-22T09:04:12.291Z,1.88
2023-01-22T09:05:15.008Z,1.70
2023-01-22T09:06:17.570Z,1.62
2023-01-22T09:07:20.065Z,1.58
2023-01-22T09:08:22.717Z,1.82
2023-01-22T09:09:25.191Z,2.51
2023-01-22T09:10:27.655Z,2.85
2023-01-22T09:11:30.543Z,2.83
2023-01-22T09:12:33.113Z,3.01
2023-01-22T09:13:35.750Z,3.05
2023-01-22T09:14:38.211Z,2.91
2023-01-22T09:15:40.667Z,3.41
2023-01-22T09:16:43.201Z,3.22
2023-01-22T09:17:45.806Z,3.32
2023-01-22T09:18:48.315Z,2.76
2023-01-22T09:19:50.836Z,2.83
2023-01-22T09:20:53.298Z,2.67
2023-01-22T09:21:55.764Z,2.36
2023-01-22T09:22:58.292Z,2.10
2023-01-22T09:24:00.752Z,2.50
2023-01-22T09:25:03.330Z,2.38
2023-01-22T09:26:05.518Z,1.99
2023-01-22T09:27:07.743Z,2.02
2023-01-22T09:28:09.992Z,2.17
2023-01-22T09:29:12.196Z,2.07
2023-01-22T09:30:14.452Z,2.42
2023-01-22T09:31:16.661Z,2.44
2023-01-22T09:32:19.172Z,2.20
2023-01-22T09:33:21.641Z,2.38
2023-01-22T09:34:24.105Z,2.21
2023-01-22T09:35:26.534Z,2.34
2023-01-22T09:36:29.059Z,2.53
2023-01-22T09:37:31.584Z,2.47
2023-01-22T09:38:34.033Z,2.21
2023-01-22T09:39:36.529Z,2.45
2023-01-22T09:40:38.977Z,2.05
2023-01-22T09:41:41.476Z,2.11
2023-01-22T09:42:43.935Z,2.06
2023-01-22T09:43:46.422Z,1.93
2023-01-22T09:44:48.671Z,1.70
2023-01-22T09:45:52.830Z,1.84
2023-01-22T09:46:55.200Z,2.33
2023-01-22T09:47:57.622Z,2.49
2023-01-22T09:49:00.193Z,2.34
2023-01-22T09:50:02.717Z,2.13
2023-01-22T09:51:05.194Z,2.48
2023-01-22T09:52:07.722Z,2.47
2023-01-22T09:53:10.155Z,2.34
2023-01-22T09:54:12.591Z,1.99
2023-01-22T09:55:15.118Z,2.33
2023-01-22T09:56:17.614Z,2.33
2023-01-22T09:57:31.293Z,2.13
2023-01-22T09:58:24.532Z,2.27
2023-01-22T09:59:27.102Z,2.62
2023-01-22T10:00:29.353Z,2.72
2023-01-22T10:01:31.715Z,2.82
2023-01-22T10:02:34.069Z,2.94
2023-01-22T10:03:36.334Z,2.77
2023-01-22T10:04:38.525Z,2.94
2023-01-22T10:05:40.783Z,2.93
2023-01-22T10:06:43.044Z,3.18
2023-01-22T10:07:45.551Z,2.77
2023-01-22T10:08:48.063Z,2.67
2023-01-22T10:09:50.573Z,2.85
2023-01-22T10:10:52.928Z,3.22
2023-01-22T10:11:55.461Z,3.14
2023-01-22T10:12:57.921Z,3.06
2023-01-22T10:14:00.388Z,2.93
2023-01-22T10:15:02.864Z,2.40
2023-01-22T10:16:05.211Z,2.77
2023-01-22T10:17:07.746Z,2.58
2023-01-22T10:18:10.196Z,2.78
2023-01-22T10:19:12.618Z,2.48
2023-01-22T10:20:15.195Z,2.39
2023-01-22T10:21:17.646Z,2.76
2023-01-22T10:22:20.133Z,2.65
2023-01-22T10:23:22.596Z,2.72
2023-01-22T10:24:25.431Z,2.67
2023-01-22T10:25:27.915Z,2.53
2023-01-22T10:26:30.326Z,2.24
2023-01-22T10:27:32.796Z,2.36
2023-01-22T10:28:35.325Z,2.61
2023-01-22T10:29:37.867Z,2.94
2023-01-22T10:30:40.417Z,2.90
2023-01-22T10:31:43.076Z,3.09
2023-01-22T10:32:45.354Z,2.96
2023-01-22T10:33:47.811Z,2.47
2023-01-22T10:34:50.235Z,2.80
2023-01-22T10:35:52.440Z,2.58
2023-01-22T10:36:54.693Z,2.49
2023-01-22T10:37:56.979Z,3.29
2023-01-22T10:38:59.202Z,3.24
2023-01-22T10:40:01.391Z,2.88
2023-01-22T10:41:03.561Z,2.72
2023-01-22T10:42:05.738Z,2.46
2023-01-22T10:43:08.051Z,2.68
2023-01-22T10:44:10.301Z,2.22
2023-01-22T10:45:12.508Z,2.83
2023-01-22T10:46:14.801Z,2.72
2023-01-22T10:47:17.086Z,2.26
2023-01-22T10:48:19.354Z,2.25
2023-01-22T10:49:21.629Z,2.51
2023-01-22T10:50:24.091Z,2.04
2023-01-22T10:51:26.483Z,2.05
2023-01-22T10:52:28.680Z,2.25
2023-01-22T10:53:30.902Z,2.40
2023-01-22T10:54:33.114Z,2.47
2023-01-22T10:55:35.404Z,2.06
2023-01-22T10:56:37.695Z,2.08
2023-01-22T10:57:39.851Z,2.10
2023-01-22T10:58:42.330Z,2.29
2023-01-22T10:59:44.682Z,2.20
2023-01-22T11:00:52.355Z,2.29
2023-01-22T11:01:53.647Z,2.31
2023-01-22T11:02:55.370Z,2.36
2023-01-22T11:03:57.835Z,2.42
2023-01-22T11:05:00.357Z,2.30
2023-01-22T11:06:02.761Z,2.11
2023-01-22T11:07:05.221Z,2.46
2023-01-22T11:08:10.217Z,2.69
2023-01-22T11:09:12.381Z,2.23
2023-01-22T11:10:14.626Z,2.41
2023-01-22T11:11:16.775Z,2.08
2023-01-22T11:12:19.007Z,2.27
2023-01-22T11:13:21.197Z,2.19
2023-01-22T11:14:23.436Z,2.56
2023-01-22T11:15:25.551Z,2.45
2023-01-22T11:16:28.001Z,2.52
2023-01-22T11:17:30.472Z,2.52
2023-01-22T11:18:32.965Z,2.55
2023-01-22T11:19:37.503Z,2.71
2023-01-22T11:20:39.405Z,2.63
2023-01-22T11:21:41.892Z,2.49
2023-01-22T11:22:44.365Z,2.69
2023-01-22T11:23:46.784Z,2.48
2023-01-22T11:24:49.351Z,2.53
2023-01-22T11:25:51.775Z,2.59
2023-01-22T11:26:54.206Z,2.81
2023-01-22T11:27:56.636Z,2.65
2023-01-22T11:28:59.140Z,2.82
2023-01-22T11:30:01.697Z,2.72
2023-01-22T11:31:04.249Z,2.72
2023-01-22T11:32:06.745Z,2.75
2023-01-22T11:33:09.238Z,2.98
2023-01-22T11:34:11.656Z,2.92
2023-01-22T11:35:14.062Z,2.96
2023-01-22T11:36:16.622Z,2.92
2023-01-22T11:37:19.176Z,3.15
2023-01-22T11:38:21.615Z,3.00
2023-01-22T11:39:24.029Z,2.86
2023-01-22T11:41:42.518Z,2.89
2023-01-22T11:42:44.729Z,3.04
2023-01-22T11:43:46.949Z,3.02
2023-01-22T11:44:49.203Z,3.38
2023-01-22T11:45:51.472Z,3.02
2023-01-22T11:48:09.867Z,2.93
2023-01-22T11:49:12.455Z,2.89
2023-01-22T11:50:14.887Z,3.13
2023-01-22T11:51:17.556Z,2.69
2023-01-22T11:52:20.001Z,2.91
2023-01-22T11:53:22.502Z,2.54
2023-01-22T11:55:41.095Z,2.29
2023-01-22T11:56:43.576Z,2.08
2023-01-22T11:57:46.123Z,2.51
2023-01-22T11:58:48.545Z,2.46
2023-01-22T11:59:50.963Z,2.33
2023-01-22T12:00:53.186Z,2.31
2023-01-22T12:01:55.736Z,2.60
2023-01-22T12:02:58.250Z,2.28
2023-01-22T12:04:16.294Z,2.29
2023-01-22T12:05:18.805Z,2.53
2023-01-22T12:06:21.073Z,2.59
2023-01-22T12:07:23.537Z,2.49
2023-01-22T12:08:26.148Z,2.63
2023-01-22T12:09:28.611Z,2.46
2023-01-22T12:10:30.807Z,2.66
2023-01-22T12:11:33.334Z,2.71
2023-01-22T12:13:52.016Z,2.66
2023-01-22T12:14:54.421Z,2.38
2023-01-22T12:15:56.873Z,2.98
2023-01-22T12:16:59.082Z,2.37
2023-01-22T12:19:17.524Z,2.37
2023-01-22T12:20:20.122Z,2.34
2023-01-22T12:21:22.903Z,2.30
2023-01-22T12:22:25.344Z,2.03
2023-01-22T12:23:27.806Z,2.31
2023-01-22T12:24:30.284Z,2.06
2023-01-22T12:25:32.835Z,2.00
2023-01-22T12:26:35.281Z,1.69
2023-01-22T12:27:37.723Z,1.66
2023-01-22T12:29:56.013Z,1.94
2023-01-22T12:30:58.362Z,2.28
2023-01-22T12:32:00.679Z,1.78
2023-01-22T12:33:05.266Z,2.15
2023-01-22T12:35:22.853Z,2.09
2023-01-22T12:36:25.287Z,2.20
2023-01-22T12:37:27.722Z,2.06
2023-01-22T12:38:30.180Z,2.18
2023-01-22T12:39:32.876Z,1.98
2023-01-22T12:40:35.434Z,2.24
2023-01-22T12:42:48.025Z,2.06
2023-01-22T12:43:50.443Z,1.97
2023-01-22T12:44:53.068Z,1.81
2023-01-22T12:45:55.453Z,1.99
2023-01-22T12:48:04.710Z,1.79
2023-01-22T12:50:23.147Z,1.75
2023-01-22T12:51:25.746Z,1.94
2023-01-22T12:52:28.248Z,1.76
2023-01-22T12:53:30.698Z,2.12
2023-01-22T12:54:33.154Z,1.98
2023-01-22T12:55:35.651Z,1.87
2023-01-22T12:56:38.165Z,2.05
2023-01-22T12:58:56.698Z,2.42
2023-01-22T12:59:59.247Z,2.33
2023-01-22T13:01:01.700Z,2.27
2023-01-22T13:02:04.218Z,2.16
2023-01-22T13:03:06.890Z,2.58
2023-01-22T13:05:25.553Z,2.65
2023-01-22T13:06:28.058Z,2.94
2023-01-22T13:07:30.482Z,2.37
2023-01-22T13:08:32.856Z,2.46
2023-01-22T13:09:35.546Z,2.75
2023-01-22T13:10:38.010Z,2.99
2023-01-22T13:12:56.323Z,2.74
2023-01-22T13:14:13.716Z,2.97
2023-01-22T13:15:02.443Z,2.61
2023-01-22T13:16:04.787Z,2.52
2023-01-22T13:17:07.099Z,2.90
2023-01-22T13:19:25.643Z,2.52
2023-01-22T13:20:28.149Z,2.80
2023-01-22T13:21:30.594Z,2.59
2023-01-22T13:22:33.000Z,2.51
2023-01-22T13:23:35.453Z,2.15
2023-01-22T13:24:38.018Z,2.07
2023-01-22T13:25:40.430Z,2.54
2023-01-22T13:26:42.920Z,2.32
2023-01-22T13:29:01.361Z,2.96
2023-01-22T13:30:06.667Z,2.70
2023-01-22T13:31:09.236Z,2.63
2023-01-22T13:32:11.875Z,2.56
2023-01-22T13:33:14.329Z,2.33
2023-01-22T13:34:16.561Z,2.54
2023-01-22T13:35:19.967Z,2.33
2023-01-22T13:36:22.697Z,2.12
2023-01-22T13:37:25.142Z,2.48
2023-01-22T13:39:43.518Z,2.22
2023-01-22T13:40:51.209Z,2.28
2023-01-22T13:41:49.778Z,2.50
2023-01-22T13:42:52.365Z,2.22
2023-01-22T13:43:54.746Z,2.27
2023-01-22T13:44:57.243Z,2.75
2023-01-22T13:45:59.824Z,2.42
2023-01-22T13:48:18.264Z,2.32
2023-01-22T13:49:20.678Z,2.47
2023-01-22T13:50:23.223Z,2.65
2023-01-22T13:51:25.705Z,2.47
2023-01-22T13:52:28.137Z,2.65
2023-01-22T13:53:30.788Z,1.95
2023-01-22T13:55:49.158Z,2.38
2023-01-22T13:56:51.336Z,2.53
2023-01-22T13:57:53.666Z,2.63
2023-01-22T14:00:12.026Z,2.48
2023-01-22T14:01:15.525Z,2.49
2023-01-22T14:02:18.117Z,2.60
2023-01-22T14:03:20.621Z,2.66
2023-01-22T14:04:23.122Z,2.77
2023-01-22T14:05:25.332Z,2.28
2023-01-22T14:06:27.544Z,2.42
2023-01-22T14:08:45.979Z,2.33
2023-01-22T14:09:48.452Z,2.40
2023-01-22T14:10:50.869Z,2.67
2023-01-22T14:11:53.325Z,2.72
2023-01-22T14:12:55.948Z,2.16
2023-01-22T14:13:58.322Z,2.39
2023-01-22T14:16:16.862Z,2.52
2023-01-22T14:17:19.296Z,2.34
2023-01-22T14:18:21.739Z,2.12
2023-01-22T14:19:24.178Z,2.23